Station Historical Data
Daily Summary for January 8, 2012 Units:  Metric    English   Both
« Previous Day
Next Day »
Daily Weekly Monthly Yearly Custom
  High: Low: Average:
Temperature: 10.8 °C 6.7 °C 8.6 °C
Dew Point: 9.9 °C 3.5 °C 6.8 °C
Humidity: 96% 72% 89%
Wind Speed: 16.1km/h 0km/h 4.7km/h
Wind Gust: 17.7km/h - -
Wind- - ENE
Pressure: 1021.9 hPa 1018.8 hPa -
Precipitation: 5.08 mm    
Historical Graphs
 
 
Tabular Data for January 8, 2012
Time Temperature Dew Point Pressure Wind Wind Speed Wind Gust Humidity Rainfall Rate (Hourly) Conditions
00:00 10.3 °C 6.8 °C 1018.8 hPa NNE 9.7 km/h 12.9 km/h 79% 0 mm
00:01 10.3 °C 6.7 °C 1019.2 hPa NE 8 km/h 12.9 km/h 78% 0 mm
00:06 10.3 °C 6.4 °C 1019.2 hPa NNE 8 km/h 9.7 km/h 77% 0 mm
00:11 10.2 °C 6.2 °C 1019.2 hPa NE 8 km/h 11.3 km/h 76% 0 mm
00:16 10.2 °C 5.9 °C 1019.2 hPa NE 4.8 km/h 9.7 km/h 75% 0 mm
00:21 10.2 °C 5.7 °C 1019.2 hPa NNE 4.8 km/h 9.7 km/h 74% 0 mm
00:26 10.2 °C 5.6 °C 1019.2 hPa NNE 4.8 km/h 9.7 km/h 73% 0 mm
00:31 10.1 °C 5.5 °C 1019.2 hPa NNE 4.8 km/h 9.7 km/h 73% 0 mm
00:36 10.1 °C 5.3 °C 1019.2 hPa NNE 3.2 km/h 8 km/h 72% 0 mm
00:41 10.1 °C 5.3 °C 1019.5 hPa Calm   3.2 km/h 72% 0 mm
00:46 10.1 °C 5.2 °C 1019.5 hPa NNW 1.6 km/h 4.8 km/h 72% 0 mm
00:51 9.9 °C 5.6 °C 1019.5 hPa NNE 4.8 km/h 4.8 km/h 74% 4.06 mm
00:56 9.6 °C 5.7 °C 1019.2 hPa NE 3.2 km/h 6.4 km/h 77% 4.57 mm
01:01 9.1 °C 6.2 °C 1019.5 hPa NNW 4.8 km/h 9.7 km/h 82% 2.79 mm
01:07 8.4 °C 5.9 °C 1019.5 hPa NNE 3.2 km/h 8 km/h 84% 2.03 mm
01:12 8 °C 5.4 °C 1019.5 hPa NNE 8 km/h 9.7 km/h 84% 1.27 mm
01:17 7.8 °C 5.2 °C 1019.5 hPa NNE 8 km/h 11.3 km/h 84% 0 mm
01:22 7.7 °C 5.1 °C 1019.5 hPa NNE 8 km/h 14.5 km/h 84% 0 mm
01:27 7.7 °C 4.8 °C 1019.5 hPa NE 8 km/h 14.5 km/h 82% 0 mm
01:32 7.8 °C 4.7 °C 1019.5 hPa NE 9.7 km/h 12.9 km/h 81% 0 mm
01:37 7.8 °C 4.9 °C 1019.5 hPa NE 8 km/h 9.7 km/h 82% 0 mm
01:42 7.8 °C 4.9 °C 1019.5 hPa NE 9.7 km/h 9.7 km/h 82% 0 mm
01:47 7.8 °C 4.9 °C 1019.2 hPa East 4.8 km/h 11.3 km/h 82% 0 mm
01:52 7.8 °C 4.9 °C 1019.2 hPa NNE 6.4 km/h 12.9 km/h 82% 0 mm
01:57 7.8 °C 5.1 °C 1019.2 hPa NE 6.4 km/h 9.7 km/h 83% 0 mm
02:02 7.8 °C 5.1 °C 1019.2 hPa NNE 6.4 km/h 11.3 km/h 83% 0 mm
02:07 7.7 °C 5 °C 1019.2 hPa NE 3.2 km/h 6.4 km/h 83% 0 mm
02:12 7.8 °C 5.2 °C 1019.5 hPa NE 3.2 km/h 4.8 km/h 84% 0 mm
02:17 7.8 °C 5.4 °C 1019.5 hPa NNW 3.2 km/h 4.8 km/h 85% 0 mm
02:22 7.7 °C 5.7 °C 1019.9 hPa NW 1.6 km/h 4.8 km/h 87% 0 mm
02:27 7.6 °C 5.8 °C 1019.9 hPa NW 1.6 km/h 3.2 km/h 88% 0 mm
02:32 7.6 °C 5.7 °C 1019.9 hPa Calm   1.6 km/h 88% 0 mm
02:37 7.6 °C 5.7 °C 1019.9 hPa NNE 3.2 km/h 4.8 km/h 88% 0 mm
02:42 7.6 °C 5.6 °C 1019.9 hPa NE 3.2 km/h 4.8 km/h 87% 0 mm
02:47 7.7 °C 5.1 °C 1019.9 hPa NE 6.4 km/h 11.3 km/h 84% 0 mm
02:52 7.7 °C 4.8 °C 1019.9 hPa NNE 8 km/h 12.9 km/h 82% 0 mm
02:58 7.7 °C 4.6 °C 1019.9 hPa North 3.2 km/h 16.1 km/h 81% 0 mm
03:03 7.6 °C 4.8 °C 1019.9 hPa NE 4.8 km/h 9.7 km/h 83% 0 mm
03:08 7.3 °C 4.8 °C 1019.9 hPa NE 16.1 km/h 17.7 km/h 84% 0 mm
03:13 7.2 °C 4.7 °C 1019.9 hPa NE 12.9 km/h 12.9 km/h 84% 0 mm
03:18 7.2 °C 4.7 °C 1019.9 hPa NNE 4.8 km/h 11.3 km/h 84% 0 mm
03:23 7.1 °C 4.6 °C 1019.9 hPa NE 4.8 km/h 8 km/h 84% 0 mm
03:28 7.1 °C 4.7 °C 1019.5 hPa NE 9.7 km/h 9.7 km/h 85% 0 mm
03:33 7 °C 4.5 °C 1019.5 hPa NNE 8 km/h 14.5 km/h 84% 0 mm
03:38 7 °C 4.5 °C 1019.5 hPa NNE 3.2 km/h 12.9 km/h 84% 0 mm
03:43 6.9 °C 4.8 °C 1019.9 hPa NNW 3.2 km/h 8 km/h 86% 0 mm
03:48 6.9 °C 4.7 °C 1019.5 hPa NE 3.2 km/h 8 km/h 86% 0 mm
03:53 6.9 °C 4.7 °C 1019.5 hPa NNE 6.4 km/h 8 km/h 86% 0 mm
03:58 6.9 °C 4.7 °C 1019.5 hPa NNE 4.8 km/h 9.7 km/h 86% 0 mm
04:03 6.9 °C 4.7 °C 1019.5 hPa NNE 6.4 km/h 9.7 km/h 86% 0 mm
04:09 6.8 °C 4.7 °C 1019.5 hPa NNE 3.2 km/h 11.3 km/h 86% 0 mm
04:14 6.8 °C 4.6 °C 1019.5 hPa NE 9.7 km/h 12.9 km/h 86% 0 mm
04:19 6.7 °C 4.6 °C 1019.2 hPa NNE 8 km/h 12.9 km/h 86% 0 mm
04:24 6.7 °C 4.6 °C 1019.2 hPa NE 6.4 km/h 9.7 km/h 86% 0 mm
04:29 6.7 °C 4.4 °C 1019.2 hPa ENE 11.3 km/h 14.5 km/h 85% 0 mm
04:34 6.8 °C 4.3 °C 1019.2 hPa NE 8 km/h 12.9 km/h 84% 0 mm
04:39 6.9 °C 4.2 °C 1019.2 hPa NE 6.4 km/h 14.5 km/h 83% 0 mm
04:40 6.9 °C 4.4 °C 1019.2 hPa NNE 8 km/h 12.9 km/h 84% 0 mm
04:45 6.9 °C 4.3 °C 1019.2 hPa NE 4.8 km/h 12.9 km/h 83% 0 mm
04:50 7 °C 4.2 °C 1019.2 hPa NNE 6.4 km/h 12.9 km/h 82% 0 mm
04:55 7 °C 4.2 °C 1019.2 hPa NE 11.3 km/h 16.1 km/h 82% 0 mm
05:00 7 °C 3.9 °C 1019.2 hPa NE 4.8 km/h 16.1 km/h 81% 0 mm
05:05 7.1 °C 3.8 °C 1019.2 hPa NE 11.3 km/h 12.9 km/h 80% 0 mm
05:10 7.1 °C 3.9 °C 1019.2 hPa NE 6.4 km/h 16.1 km/h 80% 0 mm
05:15 7.2 °C 3.8 °C 1019.2 hPa NE 12.9 km/h 17.7 km/h 79% 0 mm
05:20 7.2 °C 3.8 °C 1019.2 hPa NNE 6.4 km/h 16.1 km/h 79% 0 mm
05:25 7.2 °C 3.8 °C 1019.2 hPa NNE 9.7 km/h 12.9 km/h 79% 0 mm
05:30 7.2 °C 3.7 °C 1019.2 hPa NNE 11.3 km/h 16.1 km/h 78% 0 mm
05:35 7.3 °C 3.7 °C 1019.2 hPa NE 6.4 km/h 11.3 km/h 78% 0 mm
05:40 7.3 °C 3.5 °C 1019.2 hPa ENE 4.8 km/h 9.7 km/h 77% 0 mm
05:45 7.3 °C 3.8 °C 1019.5 hPa ENE 8 km/h 8 km/h 78% 0 mm
05:46 7.3 °C 3.6 °C 1019.5 hPa NE 3.2 km/h 9.7 km/h 77% 0 mm
05:51 7.3 °C 3.6 °C 1019.5 hPa NE 9.7 km/h 11.3 km/h 77% 0 mm
05:56 7.4 °C 3.6 °C 1019.5 hPa North 6.4 km/h 9.7 km/h 77% 0 mm
06:01 7.4 °C 3.6 °C 1019.5 hPa NE 4.8 km/h 8 km/h 77% 0 mm
06:06 7.4 °C 3.6 °C 1019.5 hPa NE 4.8 km/h 9.7 km/h 77% 0 mm
06:11 7.4 °C 3.5 °C 1019.5 hPa NE 6.4 km/h 11.3 km/h 76% 0 mm
06:16 7.4 °C 3.5 °C 1019.5 hPa ENE 3.2 km/h 9.7 km/h 76% 0 mm
06:22 7.4 °C 3.7 °C 1019.5 hPa NE 4.8 km/h 6.4 km/h 77% 0 mm
06:27 7.4 °C 3.7 °C 1019.5 hPa ESE 1.6 km/h 4.8 km/h 77% 0 mm
06:32 7.4 °C 3.7 °C 1019.5 hPa NE 3.2 km/h 6.4 km/h 77% 0 mm
06:37 7.4 °C 3.7 °C 1019.5 hPa ENE 1.6 km/h 8 km/h 77% 0 mm
06:42 7.5 °C 3.7 °C 1019.5 hPa ENE 9.7 km/h 11.3 km/h 77% 0 mm
06:47 7.5 °C 3.7 °C 1019.5 hPa NE 4.8 km/h 6.4 km/h 77% 0 mm
06:52 7.5 °C 3.9 °C 1019.5 hPa NE 3.2 km/h 11.3 km/h 78% 0 mm
06:57 7.5 °C 3.7 °C 1019.5 hPa NE 4.8 km/h 9.7 km/h 77% 0 mm
07:02 7.4 °C 3.9 °C 1019.5 hPa NE 8 km/h 9.7 km/h 78% 0 mm
07:07 7.4 °C 3.8 °C 1019.5 hPa NNE 6.4 km/h 6.4 km/h 78% 0 mm
07:12 7.4 °C 4 °C 1019.5 hPa NE 6.4 km/h 8 km/h 79% 0 mm
07:17 7.4 °C 4 °C 1019.5 hPa NE 3.2 km/h 9.7 km/h 79% 0 mm
07:22 7.4 °C 4.1 °C 1019.5 hPa ENE 3.2 km/h 9.7 km/h 79% 0 mm
07:27 7.4 °C 4.1 °C 1019.5 hPa NE 4.8 km/h 6.4 km/h 79% 0 mm
07:32 7.4 °C 4.1 °C 1019.5 hPa NE 6.4 km/h 8 km/h 79% 0 mm
07:37 7.4 °C 4.2 °C 1019.9 hPa ENE 1.6 km/h 6.4 km/h 80% 0 mm
07:42 7.4 °C 4.2 °C 1019.9 hPa NE 4.8 km/h 8 km/h 80% 0 mm
07:47 7.5 °C 4.3 °C 1019.9 hPa NNE 1.6 km/h 6.4 km/h 80% 0 mm
07:52 7.6 °C 4.3 °C 1019.9 hPa NNW 3.2 km/h 4.8 km/h 80% 0 mm
07:57 7.6 °C 4.5 °C 1019.9 hPa NNE 1.6 km/h 3.2 km/h 81% 0 mm
08:02 7.6 °C 4.3 °C 1020.2 hPa NNE 1.6 km/h 4.8 km/h 80% 0 mm
08:07 7.6 °C 4.6 °C 1020.2 hPa North 1.6 km/h 6.4 km/h 81% 0 mm
08:12 7.6 °C 4.6 °C 1020.2 hPa NNE 3.2 km/h 4.8 km/h 81% 0 mm
08:17 7.6 °C 4.7 °C 1020.2 hPa NE 3.2 km/h 4.8 km/h 82% 0 mm
08:22 7.6 °C 4.7 °C 1020.2 hPa NE 3.2 km/h 6.4 km/h 82% 0 mm
08:27 7.6 °C 4.8 °C 1020.2 hPa NE 3.2 km/h 3.2 km/h 83% 0 mm
08:32 7.6 °C 4.9 °C 1020.2 hPa NE 4.8 km/h 6.4 km/h 83% 0 mm
08:37 7.6 °C 4.9 °C 1020.5 hPa NNE 6.4 km/h 6.4 km/h 83% 0 mm
08:42 7.6 °C 4.9 °C 1020.5 hPa NNE 4.8 km/h 4.8 km/h 83% 0 mm
08:47 7.6 °C 4.8 °C 1020.5 hPa NE 4.8 km/h 4.8 km/h 83% 0 mm
08:52 7.5 °C 5 °C 1020.5 hPa ENE 1.6 km/h 6.4 km/h 84% 0 mm
08:57 7.4 °C 4.9 °C 1020.5 hPa ENE 3.2 km/h 6.4 km/h 84% 0 mm
09:02 7.4 °C 5.2 °C 1020.5 hPa East 4.8 km/h 6.4 km/h 86% 0 mm
09:07 7.3 °C 5.3 °C 1020.9 hPa NE 1.6 km/h 4.8 km/h 87% 0 mm
09:12 7.3 °C 5.4 °C 1020.9 hPa NE 4.8 km/h 4.8 km/h 88% 1.78 mm
09:17 7.2 °C 5.6 °C 1020.9 hPa East 3.2 km/h 4.8 km/h 89% 2.54 mm
09:22 7.2 °C 5.5 °C 1020.9 hPa East 4.8 km/h 4.8 km/h 89% 2.54 mm
09:27 7.1 °C 5.6 °C 1020.9 hPa NE 4.8 km/h 8 km/h 90% 3.56 mm
09:32 7.1 °C 5.7 °C 1020.9 hPa ENE 3.2 km/h 6.4 km/h 91% 3.3 mm
09:38 7 °C 5.6 °C 1020.9 hPa NE 3.2 km/h 6.4 km/h 91% 3.56 mm
09:43 6.9 °C 5.7 °C 1021.2 hPa East 3.2 km/h 6.4 km/h 92% 3.05 mm
09:48 6.9 °C 5.7 °C 1021.2 hPa ENE 6.4 km/h 9.7 km/h 92% 4.83 mm
09:53 6.9 °C 5.9 °C 1021.2 hPa ENE 6.4 km/h 9.7 km/h 93% 4.06 mm
09:58 6.9 °C 5.9 °C 1021.2 hPa East 9.7 km/h 9.7 km/h 93% 3.05 mm
10:03 6.9 °C 5.9 °C 1021.2 hPa ESE 8 km/h 9.7 km/h 93% 2.79 mm
10:08 7.1 °C 6.2 °C 1021.2 hPa East 4.8 km/h 8 km/h 94% 2.03 mm
10:13 7.1 °C 6.2 °C 1021.6 hPa NE 4.8 km/h 14.5 km/h 94% 2.03 mm
10:18 7.1 °C 6.2 °C 1021.6 hPa NNE 4.8 km/h 8 km/h 94% 1.52 mm
10:23 7.1 °C 6.2 °C 1021.6 hPa NNE 6.4 km/h 9.7 km/h 94% 1.52 mm
10:28 7.1 °C 6.2 °C 1021.6 hPa NE 3.2 km/h 6.4 km/h 94% 1.78 mm
10:33 7.1 °C 6.2 °C 1021.6 hPa NNE 4.8 km/h 6.4 km/h 94% 2.29 mm
10:38 7 °C 6.1 °C 1021.6 hPa NNE 3.2 km/h 6.4 km/h 94% 1.78 mm
10:43 7 °C 6.3 °C 1021.9 hPa NNE 6.4 km/h 6.4 km/h 95% 1.52 mm
10:48 7 °C 6.3 °C 1021.9 hPa NE 1.6 km/h 3.2 km/h 95% 1.52 mm
10:53 7.1 °C 6.3 °C 1021.9 hPa NNE 1.6 km/h 4.8 km/h 95% 1.27 mm
10:58 7.2 °C 6.4 °C 1021.9 hPa NE 4.8 km/h 4.8 km/h 95% 1.02 mm
11:03 7.2 °C 6.5 °C 1021.9 hPa NNE 1.6 km/h 4.8 km/h 95% 1.02 mm
11:08 7.3 °C 6.6 °C 1021.9 hPa NE 4.8 km/h 4.8 km/h 95% 1.02 mm
11:13 7.4 °C 6.7 °C 1021.6 hPa NE 4.8 km/h 4.8 km/h 95% 0 mm
11:18 7.6 °C 6.8 °C 1021.6 hPa NE 6.4 km/h 11.3 km/h 95% 0 mm
11:23 7.7 °C 6.9 °C 1021.6 hPa NNE 6.4 km/h 9.7 km/h 95% 0 mm
11:28 7.8 °C 7.2 °C 1021.2 hPa NE 1.6 km/h 8 km/h 96% 0 mm
11:33 8.1 °C 7.4 °C 1021.2 hPa ENE 4.8 km/h 9.7 km/h 96% 0 mm
11:38 8.2 °C 7.6 °C 1021.2 hPa East 4.8 km/h 8 km/h 96% 0 mm
11:43 8.3 °C 7.7 °C 1020.9 hPa ENE 9.7 km/h 14.5 km/h 96% 0 mm
11:48 8.4 °C 7.8 °C 1020.9 hPa ENE 6.4 km/h 11.3 km/h 96% 0 mm
11:53 8.6 °C 8 °C 1020.9 hPa ENE 8 km/h 9.7 km/h 96% 0 mm
11:58 8.7 °C 8.1 °C 1020.5 hPa ESE 6.4 km/h 9.7 km/h 96% 0 mm
12:03 8.9 °C 8.3 °C 1020.5 hPa East 1.6 km/h 6.4 km/h 96% 0 mm
12:08 9.1 °C 8.5 °C 1020.9 hPa NW 4.8 km/h 6.4 km/h 96% 0 mm
12:13 9.1 °C 8.4 °C 1021.2 hPa WNW 6.4 km/h 9.7 km/h 96% 0 mm
12:18 8.9 °C 8.1 °C 1021.2 hPa WNW 8 km/h 11.3 km/h 95% 0 mm
12:23 8.6 °C 7.8 °C 1021.2 hPa WNW 6.4 km/h 11.3 km/h 95% 0 mm
12:28 8.4 °C 7.7 °C 1021.2 hPa NW 4.8 km/h 8 km/h 95% 0 mm
12:33 8.3 °C 7.5 °C 1020.9 hPa NNW 4.8 km/h 12.9 km/h 95% 0 mm
12:38 8.2 °C 7.6 °C 1020.9 hPa North 6.4 km/h 9.7 km/h 96% 0 mm
12:43 8.1 °C 7.3 °C 1020.9 hPa North 6.4 km/h 12.9 km/h 95% 0 mm
12:48 8.2 °C 7.6 °C 1020.9 hPa NW 14.5 km/h 14.5 km/h 96% 0 mm
12:53 8.1 °C 7.3 °C 1021.2 hPa NNW 4.8 km/h 11.3 km/h 95% 0 mm
12:59 8 °C 7.2 °C 1020.9 hPa NNE 9.7 km/h 16.1 km/h 95% 0 mm
13:04 8.1 °C 7.3 °C 1020.9 hPa North 8 km/h 12.9 km/h 95% 0 mm
13:09 8.1 °C 7.3 °C 1020.9 hPa NNE 8 km/h 11.3 km/h 95% 0 mm
13:14 8.2 °C 7.3 °C 1020.9 hPa NNE 8 km/h 11.3 km/h 94% 0 mm
13:19 8.3 °C 7.4 °C 1020.5 hPa NE 8 km/h 11.3 km/h 94% 0 mm
13:24 8.4 °C 7.6 °C 1020.5 hPa NNE 8 km/h 9.7 km/h 94% 0 mm
13:29 8.4 °C 7.3 °C 1020.5 hPa NE 4.8 km/h 12.9 km/h 93% 0 mm
13:34 8.5 °C 7.4 °C 1020.5 hPa NNE 9.7 km/h 11.3 km/h 93% 0 mm
13:39 8.6 °C 7.5 °C 1020.5 hPa NE 4.8 km/h 8 km/h 93% 0 mm
13:44 8.6 °C 7.5 °C 1020.5 hPa NE 6.4 km/h 8 km/h 93% 0 mm
13:49 8.6 °C 7.6 °C 1020.5 hPa NE 6.4 km/h 9.7 km/h 93% 0 mm
13:54 8.7 °C 7.8 °C 1020.5 hPa NE 6.4 km/h 9.7 km/h 94% 0 mm
13:59 8.8 °C 7.9 °C 1020.5 hPa NNE 6.4 km/h 9.7 km/h 94% 0 mm
14:04 8.9 °C 8.1 °C 1020.2 hPa NNE 3.2 km/h 9.7 km/h 94% 0 mm
14:09 9.1 °C 8.2 °C 1020.2 hPa NE 6.4 km/h 8 km/h 94% 0 mm
14:14 9.1 °C 8.2 °C 1020.2 hPa NE 3.2 km/h 8 km/h 94% 0 mm
14:19 9.2 °C 8.3 °C 1020.2 hPa NE 4.8 km/h 4.8 km/h 94% 0 mm
14:24 9.3 °C 8.4 °C 1020.2 hPa NNE 4.8 km/h 6.4 km/h 94% 0 mm
14:29 9.4 °C 8.5 °C 1020.2 hPa NNE 4.8 km/h 8 km/h 94% 0 mm
14:34 9.6 °C 8.7 °C 1020.2 hPa North 6.4 km/h 8 km/h 94% 0 mm
14:39 9.7 °C 8.8 °C 1020.2 hPa NE 8 km/h 8 km/h 94% 0 mm
14:44 9.7 °C 8.8 °C 1020.2 hPa NNE 6.4 km/h 9.7 km/h 94% 0 mm
14:49 9.8 °C 8.9 °C 1020.2 hPa NNE 6.4 km/h 8 km/h 94% 0 mm
14:54 9.9 °C 9 °C 1020.2 hPa NNE 6.4 km/h 8 km/h 94% 0 mm
14:59 9.9 °C 9 °C 1020.2 hPa NE 6.4 km/h 11.3 km/h 94% 0 mm
15:04 10.2 °C 9.2 °C 1020.2 hPa NNE 3.2 km/h 6.4 km/h 94% 0 mm
15:09 10.3 °C 9.3 °C 1020.2 hPa North 4.8 km/h 4.8 km/h 94% 0 mm
15:14 10.4 °C 9.4 °C 1020.2 hPa North 3.2 km/h 6.4 km/h 94% 0 mm
15:19 10.5 °C 9.6 °C 1020.2 hPa NE 6.4 km/h 6.4 km/h 94% 0 mm
15:24 10.4 °C 9.3 °C 1020.2 hPa NE 4.8 km/h 8 km/h 93% 0 mm
15:29 10.4 °C 9.3 °C 1020.2 hPa NE 6.4 km/h 6.4 km/h 93% 0 mm
15:34 10.4 °C 9.3 °C 1020.2 hPa NNE 4.8 km/h 6.4 km/h 93% 0 mm
15:39 10.5 °C 9.6 °C 1020.2 hPa NNE 3.2 km/h 6.4 km/h 94% 0 mm
15:44 10.6 °C 9.7 °C 1020.2 hPa NNE 3.2 km/h 4.8 km/h 94% 0 mm
15:50 10.7 °C 9.7 °C 1020.2 hPa NNE 4.8 km/h 4.8 km/h 94% 0 mm
15:55 10.8 °C 9.8 °C 1020.2 hPa NNE 4.8 km/h 6.4 km/h 94% 0 mm
16:00 10.7 °C 9.8 °C 1020.2 hPa North 1.6 km/h 4.8 km/h 94% 0 mm
16:05 10.7 °C 9.8 °C 1020.2 hPa NNE 6.4 km/h 6.4 km/h 94% 0 mm
16:10 10.7 °C 9.8 °C 1020.5 hPa NNE 1.6 km/h 4.8 km/h 94% 0 mm
16:15 10.7 °C 9.8 °C 1020.5 hPa NE 1.6 km/h 3.2 km/h 94% 0 mm
16:20 10.7 °C 9.8 °C 1020.5 hPa NE 1.6 km/h 1.6 km/h 94% 0 mm
16:25 10.7 °C 9.8 °C 1020.5 hPa NE 3.2 km/h 3.2 km/h 94% 0 mm
16:30 10.7 °C 9.7 °C 1020.5 hPa NE 1.6 km/h 3.2 km/h 94% 0 mm
16:35 10.7 °C 9.7 °C 1020.5 hPa NE 1.6 km/h 1.6 km/h 94% 0 mm
16:40 10.7 °C 9.7 °C 1020.9 hPa Calm   1.6 km/h 94% 0 mm
16:45 10.7 °C 9.7 °C 1020.9 hPa Calm     94% 0 mm
16:50 10.7 °C 9.8 °C 1020.9 hPa Calm   1.6 km/h 94% 0 mm
16:55 10.7 °C 9.8 °C 1020.9 hPa NE 4.8 km/h 4.8 km/h 94% 0 mm
17:00 10.7 °C 9.8 °C 1020.9 hPa NNE 3.2 km/h 4.8 km/h 94% 0 mm
17:05 10.7 °C 9.8 °C 1020.9 hPa NNE 3.2 km/h 4.8 km/h 94% 0 mm
17:10 10.7 °C 9.8 °C 1020.9 hPa NNE 3.2 km/h 6.4 km/h 94% 0 mm
17:15 10.7 °C 9.9 °C 1020.9 hPa NE 1.6 km/h 4.8 km/h 95% 0 mm
17:20 10.7 °C 9.9 °C 1020.5 hPa NE 3.2 km/h 6.4 km/h 95% 0 mm
17:25 10.7 °C 9.9 °C 1020.5 hPa ENE 4.8 km/h 4.8 km/h 95% 0 mm
17:30 10.6 °C 9.8 °C 1020.5 hPa NE 3.2 km/h 4.8 km/h 95% 0 mm
17:35 10.6 °C 9.8 °C 1020.9 hPa ENE 4.8 km/h 6.4 km/h 95% 0 mm
17:40 10.5 °C 9.7 °C 1020.9 hPa East 1.6 km/h 4.8 km/h 95% 0 mm
17:45 10.5 °C 9.7 °C 1020.9 hPa NE 1.6 km/h 4.8 km/h 95% 0 mm
17:50 10.4 °C 9.7 °C 1020.5 hPa NNE 4.8 km/h 8 km/h 95% 0 mm
17:55 10.4 °C 9.6 °C 1020.5 hPa NE 6.4 km/h 8 km/h 95% 0 mm
18:00 10.3 °C 9.6 °C 1020.5 hPa NE 4.8 km/h 8 km/h 95% 0 mm
18:05 10.3 °C 9.5 °C 1020.9 hPa NE 6.4 km/h 9.7 km/h 95% 0 mm
18:10 10.2 °C 9.4 °C 1020.9 hPa NE 6.4 km/h 8 km/h 95% 0 mm
18:15 10.2 °C 9.4 °C 1020.9 hPa NE 3.2 km/h 8 km/h 95% 0 mm
18:20 10.1 °C 9.3 °C 1020.9 hPa ENE 4.8 km/h 8 km/h 95% 0 mm
18:26 9.9 °C 9.2 °C 1021.2 hPa ENE 8 km/h 11.3 km/h 95% 0 mm
18:31 9.8 °C 8.9 °C 1021.2 hPa ENE 1.6 km/h 6.4 km/h 94% 0 mm
18:36 9.7 °C 8.8 °C 1021.6 hPa NNE 3.2 km/h 4.8 km/h 94% 0 mm
18:41 9.7 °C 8.8 °C 1021.6 hPa NNE 3.2 km/h 3.2 km/h 94% 0 mm
18:46 9.7 °C 8.8 °C 1021.6 hPa NE 1.6 km/h 4.8 km/h 94% 0 mm
18:51 9.7 °C 8.8 °C 1021.6 hPa ENE 3.2 km/h 3.2 km/h 94% 0 mm
18:56 9.6 °C 8.7 °C 1021.6 hPa East 1.6 km/h 3.2 km/h 94% 0 mm
19:01 9.6 °C 8.7 °C 1021.6 hPa ESE 3.2 km/h 3.2 km/h 94% 0 mm
19:06 9.6 °C 8.7 °C 1021.6 hPa East 1.6 km/h 1.6 km/h 94% 0 mm
19:11 9.6 °C 8.6 °C 1021.6 hPa ESE 1.6 km/h 3.2 km/h 94% 0 mm
19:16 9.5 °C 8.6 °C 1021.6 hPa ESE 3.2 km/h 3.2 km/h 94% 0 mm
19:21 9.4 °C 8.5 °C 1021.6 hPa ESE 1.6 km/h 3.2 km/h 94% 0 mm
19:26 9.4 °C 8.4 °C 1021.6 hPa East 1.6 km/h 3.2 km/h 94% 0 mm
19:31 9.4 °C 8.4 °C 1021.6 hPa ESE 3.2 km/h 3.2 km/h 94% 0 mm
19:36 9.4 °C 8.4 °C 1021.6 hPa ESE 1.6 km/h 3.2 km/h 94% 0 mm
19:41 9.3 °C 8.4 °C 1021.6 hPa Calm   1.6 km/h 94% 0 mm
19:46 9.3 °C 8.3 °C 1021.2 hPa NE 3.2 km/h 4.8 km/h 93% 0 mm
19:51 9.4 °C 8.3 °C 1021.2 hPa ENE 3.2 km/h 4.8 km/h 93% 0 mm
19:56 9.4 °C 8.3 °C 1021.2 hPa East 1.6 km/h 3.2 km/h 93% 0 mm
20:01 9.4 °C 8.3 °C 1021.2 hPa East 1.6 km/h 4.8 km/h 93% 0 mm
20:06 9.4 °C 8.3 °C 1021.2 hPa East 1.6 km/h 4.8 km/h 93% 0 mm
20:11 9.4 °C 8.3 °C 1021.6 hPa ENE 4.8 km/h 6.4 km/h 93% 0 mm
20:16 9.4 °C 8.3 °C 1021.2 hPa East 6.4 km/h 6.4 km/h 93% 0 mm
20:21 9.4 °C 8.3 °C 1021.2 hPa NE 3.2 km/h 4.8 km/h 93% 0 mm
20:26 9.3 °C 8.3 °C 1021.2 hPa ENE 4.8 km/h 8 km/h 93% 0 mm
20:31 9.3 °C 8.1 °C 1021.2 hPa North 4.8 km/h 8 km/h 92% 0 mm
20:36 9.3 °C 8.1 °C 1021.2 hPa NE 6.4 km/h 12.9 km/h 92% 0 mm
20:41 9.3 °C 8.1 °C 1021.2 hPa NNE 4.8 km/h 9.7 km/h 92% 0 mm
20:46 9.3 °C 8.1 °C 1021.2 hPa NE 4.8 km/h 9.7 km/h 92% 0 mm
20:51 9.3 °C 8.1 °C 1021.2 hPa ENE 6.4 km/h 9.7 km/h 92% 0 mm
20:56 9.3 °C 8.1 °C 1021.2 hPa NE 6.4 km/h 9.7 km/h 92% 0 mm
21:02 9.3 °C 8.1 °C 1021.2 hPa NE 9.7 km/h 9.7 km/h 92% 0 mm
21:07 9.3 °C 8.2 °C 1021.2 hPa NE 4.8 km/h 9.7 km/h 93% 0 mm
21:12 9.3 °C 8.2 °C 1020.9 hPa NE 4.8 km/h 11.3 km/h 93% 0 mm
21:17 9.2 °C 8.2 °C 1020.9 hPa NNE 9.7 km/h 12.9 km/h 93% 0 mm
21:22 9.2 °C 8.2 °C 1020.9 hPa NE 9.7 km/h 11.3 km/h 93% 0 mm
21:27 9.2 °C 8.1 °C 1020.9 hPa NNE 4.8 km/h 9.7 km/h 93% 0 mm
21:32 9.2 °C 8.1 °C 1021.2 hPa NE 3.2 km/h 9.7 km/h 93% 0 mm
21:37 9.2 °C 8.1 °C 1020.9 hPa NE 6.4 km/h 6.4 km/h 93% 0 mm
21:42 9.2 °C 8.1 °C 1020.9 hPa NE 4.8 km/h 4.8 km/h 93% 0 mm
21:47 9.2 °C 8.3 °C 1020.9 hPa ENE 1.6 km/h 8 km/h 94% 0 mm
21:52 9.1 °C 8.2 °C 1021.2 hPa East 1.6 km/h 3.2 km/h 94% 0 mm
21:57 9.1 °C 8.2 °C 1021.2 hPa ENE 3.2 km/h 3.2 km/h 94% 0 mm
22:02 9.1 °C 8.2 °C 1020.9 hPa East 1.6 km/h 4.8 km/h 94% 0 mm
22:07 9.1 °C 8.2 °C 1020.9 hPa East 3.2 km/h 4.8 km/h 94% 0 mm
22:12 9.1 °C 8.2 °C 1020.9 hPa ENE 4.8 km/h 6.4 km/h 94% 0 mm
22:17 9.1 °C 8.2 °C 1020.9 hPa ESE 3.2 km/h 6.4 km/h 94% 0 mm
22:22 9.1 °C 8.2 °C 1020.9 hPa ESE 3.2 km/h 3.2 km/h 94% 0 mm
22:27 9.1 °C 8.2 °C 1020.9 hPa Calm   3.2 km/h 94% 0 mm
22:32 9.1 °C 8.3 °C 1020.9 hPa East 3.2 km/h 3.2 km/h 95% 0 mm
22:37 9.1 °C 8.3 °C 1020.9 hPa East 1.6 km/h 1.6 km/h 95% 0 mm
22:42 9.1 °C 8.3 °C 1021.2 hPa Calm     95% 0 mm
22:47 9.1 °C 8.3 °C 1021.2 hPa NNE 1.6 km/h 1.6 km/h 95% 0 mm
22:52 9 °C 8.2 °C 1020.9 hPa NE 1.6 km/h 1.6 km/h 95% 0 mm
22:57 9 °C 8.2 °C 1020.9 hPa NE 1.6 km/h 3.2 km/h 95% 0 mm
23:02 9 °C 8.2 °C 1020.9 hPa ENE 3.2 km/h 4.8 km/h 95% 0 mm
23:07 9 °C 8.2 °C 1020.9 hPa ESE 3.2 km/h 3.2 km/h 95% 0 mm
23:12 9 °C 8.2 °C 1020.5 hPa East 3.2 km/h 4.8 km/h 95% 0 mm
23:17 9 °C 8.2 °C 1020.5 hPa SE 1.6 km/h 4.8 km/h 95% 0 mm
23:22 8.9 °C 8.3 °C 1020.9 hPa Calm   3.2 km/h 96% 0 mm
23:27 8.9 °C 8.3 °C 1020.9 hPa Calm   1.6 km/h 96% 0 mm
23:32 8.9 °C 8.3 °C 1020.5 hPa Calm   1.6 km/h 96% 0 mm
23:37 8.9 °C 8.3 °C 1020.9 hPa Calm     96% 0 mm
23:42 8.9 °C 8.3 °C 1020.5 hPa Calm   1.6 km/h 96% 0 mm
23:47 8.9 °C 8.3 °C 1020.5 hPa Calm     96% 0 mm
23:52 8.9 °C 8.3 °C 1020.5 hPa Calm   1.6 km/h 96% 0 mm
23:57 8.9 °C 8.3 °C 1020.5 hPa Calm   1.6 km/h 96% 0 mm
Compliments of Weather Underground